sensor_id;sensor_type;location;lat;lon;timestamp;pressure;altitude;pressure_sealevel;temperature;humidity
80511;BME280;69840;53.040;8.600;2023-07-08T00:02:28;102170.94;;;17.00;67.79
80511;BME280;69840;53.040;8.600;2023-07-08T00:06:41;102167.13;;;16.95;68.44
80511;BME280;69840;53.040;8.600;2023-07-08T00:10:54;102163.81;;;16.93;68.72
80511;BME280;69840;53.040;8.600;2023-07-08T00:15:07;102162.81;;;16.86;69.28
80511;BME280;69840;53.040;8.600;2023-07-08T00:19:19;102152.31;;;16.84;68.92
80511;BME280;69840;53.040;8.600;2023-07-08T00:23:32;102163.50;;;16.79;68.57
80511;BME280;69840;53.040;8.600;2023-07-08T00:27:45;102163.00;;;16.76;69.41
80511;BME280;69840;53.040;8.600;2023-07-08T00:31:58;102158.16;;;16.71;69.45
80511;BME280;69840;53.040;8.600;2023-07-08T00:36:12;102167.72;;;16.66;70.15
80511;BME280;69840;53.040;8.600;2023-07-08T00:40:28;102158.50;;;16.60;69.55
80511;BME280;69840;53.040;8.600;2023-07-08T00:44:41;102161.00;;;16.62;69.97
80511;BME280;69840;53.040;8.600;2023-07-08T00:49:03;102153.81;;;16.54;69.87
80511;BME280;69840;53.040;8.600;2023-07-08T00:53:26;102158.19;;;16.47;70.18
80511;BME280;69840;53.040;8.600;2023-07-08T00:57:43;102155.19;;;16.42;71.10
80511;BME280;69840;53.040;8.600;2023-07-08T01:01:59;102147.19;;;16.34;71.56
80511;BME280;69840;53.040;8.600;2023-07-08T01:06:13;102142.53;;;16.28;70.94
80511;BME280;69840;53.040;8.600;2023-07-08T01:10:29;102146.69;;;16.22;71.81
80511;BME280;69840;53.040;8.600;2023-07-08T01:14:44;102147.84;;;16.11;72.40
80511;BME280;69840;53.040;8.600;2023-07-08T01:18:58;102145.03;;;16.05;72.90
80511;BME280;69840;53.040;8.600;2023-07-08T01:23:11;102146.19;;;15.94;73.02
80511;BME280;69840;53.040;8.600;2023-07-08T01:27:23;102139.84;;;15.87;73.62
80511;BME280;69840;53.040;8.600;2023-07-08T01:31:36;102145.16;;;15.79;74.60
80511;BME280;69840;53.040;8.600;2023-07-08T01:35:49;102127.50;;;15.70;74.93
80511;BME280;69840;53.040;8.600;2023-07-08T01:40:35;102127.47;;;15.62;75.49
80511;BME280;69840;53.040;8.600;2023-07-08T01:44:49;102123.78;;;15.55;74.92
80511;BME280;69840;53.040;8.600;2023-07-08T01:49:01;102126.09;;;15.50;75.98
80511;BME280;69840;53.040;8.600;2023-07-08T01:53:18;102128.38;;;15.44;75.28
80511;BME280;69840;53.040;8.600;2023-07-08T01:57:31;102128.22;;;15.38;75.54
80511;BME280;69840;53.040;8.600;2023-07-08T02:01:44;102125.72;;;15.36;75.77
80511;BME280;69840;53.040;8.600;2023-07-08T02:05:57;102125.03;;;15.26;75.63
80511;BME280;69840;53.040;8.600;2023-07-08T02:10:09;102126.66;;;15.19;76.39
80511;BME280;69840;53.040;8.600;2023-07-08T02:14:22;102102.47;;;15.13;76.94
80511;BME280;69840;53.040;8.600;2023-07-08T02:18:35;102107.63;;;15.06;77.34
80511;BME280;69840;53.040;8.600;2023-07-08T02:22:47;102107.13;;;15.02;77.65
80511;BME280;69840;53.040;8.600;2023-07-08T02:27:00;102112.06;;;14.97;77.05
80511;BME280;69840;53.040;8.600;2023-07-08T02:31:12;102109.41;;;14.97;77.11
80511;BME280;69840;53.040;8.600;2023-07-08T02:35:27;102111.09;;;14.98;76.92
80511;BME280;69840;53.040;8.600;2023-07-08T02:39:40;102115.56;;;14.98;76.74
80511;BME280;69840;53.040;8.600;2023-07-08T02:43:52;102111.59;;;14.94;77.00
80511;BME280;69840;53.040;8.600;2023-07-08T02:48:05;102104.22;;;14.88;77.86
80511;BME280;69840;53.040;8.600;2023-07-08T02:52:17;102114.34;;;14.84;77.95
80511;BME280;69840;53.040;8.600;2023-07-08T02:56:30;102110.16;;;14.82;77.99
80511;BME280;69840;53.040;8.600;2023-07-08T03:00:42;102105.84;;;14.81;77.35
80511;BME280;69840;53.040;8.600;2023-07-08T03:04:55;102098.69;;;14.81;77.21
80511;BME280;69840;53.040;8.600;2023-07-08T03:09:08;102100.34;;;14.82;77.64
80511;BME280;69840;53.040;8.600;2023-07-08T03:13:21;102090.06;;;14.79;77.88
80511;BME280;69840;53.040;8.600;2023-07-08T03:17:33;102100.19;;;14.76;77.87
80511;BME280;69840;53.040;8.600;2023-07-08T03:21:46;102082.84;;;14.71;78.14
80511;BME280;69840;53.040;8.600;2023-07-08T03:25:59;102092.81;;;14.69;77.56
80511;BME280;69840;53.040;8.600;2023-07-08T03:30:13;102097.78;;;14.64;77.75
80511;BME280;69840;53.040;8.600;2023-07-08T03:34:26;102098.44;;;14.66;78.45
80511;BME280;69840;53.040;8.600;2023-07-08T03:38:40;102094.28;;;14.64;78.04
80511;BME280;69840;53.040;8.600;2023-07-08T03:42:52;102095.28;;;14.63;78.04
80511;BME280;69840;53.040;8.600;2023-07-08T03:47:05;102098.28;;;14.68;78.13
80511;BME280;69840;53.040;8.600;2023-07-08T03:51:24;102102.47;;;14.70;78.12
80511;BME280;69840;53.040;8.600;2023-07-08T03:55:38;102103.84;;;14.74;78.05
80511;BME280;69840;53.040;8.600;2023-07-08T03:59:51;102094.19;;;14.73;78.34
80511;BME280;69840;53.040;8.600;2023-07-08T04:04:04;102088.88;;;14.82;77.81
80511;BME280;69840;53.040;8.600;2023-07-08T04:08:19;102084.75;;;14.87;77.37
80511;BME280;69840;53.040;8.600;2023-07-08T04:12:32;102087.28;;;14.97;76.96
80511;BME280;69840;53.040;8.600;2023-07-08T04:16:57;102085.34;;;15.07;76.13
80511;BME280;69840;53.040;8.600;2023-07-08T04:21:10;102093.19;;;15.17;75.96
80511;BME280;69840;53.040;8.600;2023-07-08T04:25:25;102088.22;;;15.30;75.79
80511;BME280;69840;53.040;8.600;2023-07-08T04:29:40;102089.94;;;15.39;75.38
80511;BME280;69840;53.040;8.600;2023-07-08T04:33:53;102089.78;;;15.49;74.63
80511;BME280;69840;53.040;8.600;2023-07-08T04:38:06;102093.81;;;15.61;74.46
80511;BME280;69840;53.040;8.600;2023-07-08T04:42:19;102088.84;;;15.74;73.69
80511;BME280;69840;53.040;8.600;2023-07-08T04:46:48;102091.69;;;15.89;73.26
80511;BME280;69840;53.040;8.600;2023-07-08T04:51:02;102092.34;;;16.07;72.77
80511;BME280;69840;53.040;8.600;2023-07-08T04:55:15;102084.31;;;16.31;71.98
80511;BME280;69840;53.040;8.600;2023-07-08T04:59:27;102083.84;;;17.22;68.14
80511;BME280;69840;53.040;8.600;2023-07-08T05:03:40;102080.88;;;18.46;64.03
80511;BME280;69840;53.040;8.600;2023-07-08T05:07:53;102078.47;;;19.46;59.72
80511;BME280;69840;53.040;8.600;2023-07-08T05:12:06;102083.75;;;20.24;58.54
80511;BME280;69840;53.040;8.600;2023-07-08T05:16:18;102085.69;;;21.06;55.73
80511;BME280;69840;53.040;8.600;2023-07-08T05:20:31;102080.03;;;21.49;54.30
80511;BME280;69840;53.040;8.600;2023-07-08T05:24:44;102088.72;;;21.57;54.98
80511;BME280;69840;53.040;8.600;2023-07-08T05:28:58;102081.97;;;22.21;52.73
80511;BME280;69840;53.040;8.600;2023-07-08T05:33:10;102086.47;;;22.60;52.03
80511;BME280;69840;53.040;8.600;2023-07-08T05:37:23;102081.97;;;22.08;53.06
80511;BME280;69840;53.040;8.600;2023-07-08T05:41:35;102074.47;;;21.77;54.74
80511;BME280;69840;53.040;8.600;2023-07-08T05:45:48;102083.53;;;21.36;55.83
80511;BME280;69840;53.040;8.600;2023-07-08T05:50:09;102077.00;;;21.11;56.09
80511;BME280;69840;53.040;8.600;2023-07-08T05:54:21;102088.97;;;21.01;56.67
80511;BME280;69840;53.040;8.600;2023-07-08T05:58:34;102077.81;;;21.11;56.99
80511;BME280;69840;53.040;8.600;2023-07-08T06:02:46;102080.28;;;20.99;56.49
80511;BME280;69840;53.040;8.600;2023-07-08T06:06:59;102074.88;;;20.99;55.25
80511;BME280;69840;53.040;8.600;2023-07-08T06:11:11;102076.50;;;20.87;57.78
80511;BME280;69840;53.040;8.600;2023-07-08T06:15:24;102079.34;;;20.79;55.65
80511;BME280;69840;53.040;8.600;2023-07-08T06:19:36;102075.66;;;20.87;55.99
80511;BME280;69840;53.040;8.600;2023-07-08T06:23:49;102073.81;;;20.94;55.57
80511;BME280;69840;53.040;8.600;2023-07-08T06:28:01;102072.41;;;20.98;56.51
80511;BME280;69840;53.040;8.600;2023-07-08T06:32:14;102077.84;;;21.18;56.10
80511;BME280;69840;53.040;8.600;2023-07-08T06:36:26;102075.63;;;21.28;57.64
80511;BME280;69840;53.040;8.600;2023-07-08T06:40:39;102067.50;;;21.15;56.56
80511;BME280;69840;53.040;8.600;2023-07-08T06:44:51;102069.22;;;21.22;53.75
80511;BME280;69840;53.040;8.600;2023-07-08T06:49:05;102071.31;;;21.33;55.05
80511;BME280;69840;53.040;8.600;2023-07-08T06:53:18;102068.63;;;21.33;61.69
80511;BME280;69840;53.040;8.600;2023-07-08T06:57:31;102069.44;;;21.21;63.35
80511;BME280;69840;53.040;8.600;2023-07-08T07:01:43;102062.94;;;21.09;59.89
80511;BME280;69840;53.040;8.600;2023-07-08T07:05:56;102064.53;;;20.96;61.62
80511;BME280;69840;53.040;8.600;2023-07-08T07:10:09;102061.06;;;21.02;62.30
80511;BME280;69840;53.040;8.600;2023-07-08T07:14:22;102060.47;;;21.07;60.26
80511;BME280;69840;53.040;8.600;2023-07-08T07:18:37;102059.63;;;21.13;59.63
80511;BME280;69840;53.040;8.600;2023-07-08T07:22:50;102068.00;;;21.31;59.12
80511;BME280;69840;53.040;8.600;2023-07-08T07:27:02;102052.91;;;21.37;58.54
80511;BME280;69840;53.040;8.600;2023-07-08T07:31:15;102055.63;;;21.50;59.49
80511;BME280;69840;53.040;8.600;2023-07-08T07:35:27;102053.97;;;21.76;58.20
80511;BME280;69840;53.040;8.600;2023-07-08T07:39:40;102047.56;;;21.90;55.84
80511;BME280;69840;53.040;8.600;2023-07-08T07:43:53;102043.84;;;22.11;55.72
80511;BME280;69840;53.040;8.600;2023-07-08T07:48:05;102043.66;;;22.19;54.78
80511;BME280;69840;53.040;8.600;2023-07-08T07:52:18;102036.16;;;22.27;55.13
80511;BME280;69840;53.040;8.600;2023-07-08T07:56:30;102039.03;;;22.46;54.82
80511;BME280;69840;53.040;8.600;2023-07-08T08:00:43;102037.53;;;22.63;56.15
80511;BME280;69840;53.040;8.600;2023-07-08T08:04:55;102041.44;;;22.80;52.28
80511;BME280;69840;53.040;8.600;2023-07-08T08:09:08;102047.53;;;23.00;52.73
80511;BME280;69840;53.040;8.600;2023-07-08T08:13:21;102056.41;;;23.14;54.59
80511;BME280;69840;53.040;8.600;2023-07-08T08:17:33;102050.50;;;23.30;53.74
80511;BME280;69840;53.040;8.600;2023-07-08T08:21:46;102041.94;;;23.40;53.17
80511;BME280;69840;53.040;8.600;2023-07-08T08:25:59;102043.53;;;23.54;51.75
80511;BME280;69840;53.040;8.600;2023-07-08T08:30:12;102052.53;;;23.73;52.14
80511;BME280;69840;53.040;8.600;2023-07-08T08:34:24;102041.22;;;23.83;53.00
80511;BME280;69840;53.040;8.600;2023-07-08T08:38:37;102035.91;;;23.94;52.82
80511;BME280;69840;53.040;8.600;2023-07-08T08:43:17;102041.13;;;24.14;50.73
80511;BME280;69840;53.040;8.600;2023-07-08T08:51:48;102027.47;;;24.34;52.29
80511;BME280;69840;53.040;8.600;2023-07-08T08:56:12;102033.69;;;24.34;50.54
80511;BME280;69840;53.040;8.600;2023-07-08T09:00:54;102029.56;;;24.50;49.43
80511;BME280;69840;53.040;8.600;2023-07-08T09:05:10;102028.75;;;24.68;50.10
80511;BME280;69840;53.040;8.600;2023-07-08T09:09:40;102028.63;;;24.74;48.64
80511;BME280;69840;53.040;8.600;2023-07-08T09:13:54;102035.88;;;24.99;48.56
80511;BME280;69840;53.040;8.600;2023-07-08T09:18:34;102025.09;;;25.22;47.93
80511;BME280;69840;53.040;8.600;2023-07-08T09:22:58;102029.88;;;25.38;47.90
80511;BME280;69840;53.040;8.600;2023-07-08T09:27:14;102019.31;;;25.48;48.62
80511;BME280;69840;53.040;8.600;2023-07-08T09:31:29;102023.41;;;25.51;45.66
80511;BME280;69840;53.040;8.600;2023-07-08T09:35:47;102032.09;;;25.71;47.06
80511;BME280;69840;53.040;8.600;2023-07-08T09:40:28;102019.72;;;25.87;46.11
80511;BME280;69840;53.040;8.600;2023-07-08T09:44:38;102017.97;;;26.04;44.97
80511;BME280;69840;53.040;8.600;2023-07-08T09:48:50;102016.88;;;26.17;45.24
80511;BME280;69840;53.040;8.600;2023-07-08T09:53:03;102010.66;;;26.40;43.70
80511;BME280;69840;53.040;8.600;2023-07-08T09:57:28;102013.97;;;26.70;42.34
80511;BME280;69840;53.040;8.600;2023-07-08T10:01:41;102016.59;;;26.65;45.34
80511;BME280;69840;53.040;8.600;2023-07-08T10:05:56;102021.28;;;27.10;43.64
80511;BME280;69840;53.040;8.600;2023-07-08T10:10:13;102018.84;;;27.25;41.03
80511;BME280;69840;53.040;8.600;2023-07-08T10:14:29;102009.63;;;27.43;41.76
80511;BME280;69840;53.040;8.600;2023-07-08T10:18:42;102008.19;;;27.85;39.42
80511;BME280;69840;53.040;8.600;2023-07-08T10:23:05;102008.84;;;29.23;37.79
80511;BME280;69840;53.040;8.600;2023-07-08T10:27:40;102008.50;;;29.47;37.97
80511;BME280;69840;53.040;8.600;2023-07-08T10:46:05;101993.25;;;29.46;38.32
80511;BME280;69840;53.040;8.600;2023-07-08T10:55:10;101992.94;;;29.79;36.97
80511;BME280;69840;53.040;8.600;2023-07-08T11:08:00;101977.59;;;30.73;33.05
80511;BME280;69840;53.040;8.600;2023-07-08T11:16:38;101972.69;;;31.96;31.70
80511;BME280;69840;53.040;8.600;2023-07-08T11:21:00;101964.44;;;32.27;34.61
80511;BME280;69840;53.040;8.600;2023-07-08T11:25:18;101966.75;;;33.03;28.43
80511;BME280;69840;53.040;8.600;2023-07-08T11:29:38;101959.41;;;34.33;28.78
80511;BME280;69840;53.040;8.600;2023-07-08T11:33:53;101949.28;;;34.90;24.99
80511;BME280;69840;53.040;8.600;2023-07-08T11:38:11;101948.31;;;36.19;22.97
80511;BME280;69840;53.040;8.600;2023-07-08T11:42:35;101938.94;;;35.79;23.09
80511;BME280;69840;53.040;8.600;2023-07-08T11:46:55;101932.75;;;36.50;23.27
80511;BME280;69840;53.040;8.600;2023-07-08T11:51:08;101928.41;;;36.72;21.59
80511;BME280;69840;53.040;8.600;2023-07-08T11:55:36;101929.44;;;38.00;21.35
80511;BME280;69840;53.040;8.600;2023-07-08T12:00:24;101928.88;;;38.46;21.41
80511;BME280;69840;53.040;8.600;2023-07-08T12:05:02;101920.81;;;39.39;19.90
80511;BME280;69840;53.040;8.600;2023-07-08T12:09:28;101920.19;;;39.25;17.38
80511;BME280;69840;53.040;8.600;2023-07-08T12:13:41;101918.16;;;39.60;20.30
80511;BME280;69840;53.040;8.600;2023-07-08T12:18:05;101913.81;;;39.50;18.30
80511;BME280;69840;53.040;8.600;2023-07-08T12:22:20;101921.16;;;40.05;18.05
80511;BME280;69840;53.040;8.600;2023-07-08T12:26:33;101907.97;;;40.73;16.69
80511;BME280;69840;53.040;8.600;2023-07-08T12:30:46;101907.41;;;41.25;16.13
80511;BME280;69840;53.040;8.600;2023-07-08T12:34:59;101907.66;;;41.20;17.22
80511;BME280;69840;53.040;8.600;2023-07-08T12:39:15;101898.03;;;41.17;16.77
80511;BME280;69840;53.040;8.600;2023-07-08T12:43:28;101893.47;;;41.00;18.25
80511;BME280;69840;53.040;8.600;2023-07-08T12:47:42;101900.28;;;40.70;16.15
80511;BME280;69840;53.040;8.600;2023-07-08T12:51:55;101891.44;;;40.56;17.94
80511;BME280;69840;53.040;8.600;2023-07-08T12:56:07;101885.44;;;40.75;16.94
80511;BME280;69840;53.040;8.600;2023-07-08T13:00:26;101894.81;;;39.99;18.43
80511;BME280;69840;53.040;8.600;2023-07-08T13:04:40;101888.06;;;39.41;20.68
80511;BME280;69840;53.040;8.600;2023-07-08T13:08:53;101883.13;;;39.17;17.93
80511;BME280;69840;53.040;8.600;2023-07-08T13:13:17;101882.88;;;39.40;20.43
80511;BME280;69840;53.040;8.600;2023-07-08T13:17:31;101884.13;;;38.95;17.63
80511;BME280;69840;53.040;8.600;2023-07-08T13:21:44;101870.13;;;39.18;18.68
80511;BME280;69840;53.040;8.600;2023-07-08T13:25:58;101871.97;;;39.73;16.83
80511;BME280;69840;53.040;8.600;2023-07-08T13:30:18;101866.75;;;40.01;17.80
80511;BME280;69840;53.040;8.600;2023-07-08T13:34:32;101866.72;;;39.80;17.59
80511;BME280;69840;53.040;8.600;2023-07-08T13:38:45;101863.53;;;39.69;17.28
80511;BME280;69840;53.040;8.600;2023-07-08T13:42:58;101859.09;;;39.47;19.76
80511;BME280;69840;53.040;8.600;2023-07-08T13:47:29;101866.28;;;39.69;19.70
80511;BME280;69840;53.040;8.600;2023-07-08T13:51:42;101872.28;;;39.80;20.29
80511;BME280;69840;53.040;8.600;2023-07-08T13:56:00;101866.44;;;40.02;15.24
80511;BME280;69840;53.040;8.600;2023-07-08T14:00:14;101872.31;;;40.01;19.46
80511;BME280;69840;53.040;8.600;2023-07-08T14:04:33;101859.25;;;40.01;18.16
80511;BME280;69840;53.040;8.600;2023-07-08T14:08:46;101862.34;;;39.79;16.06
80511;BME280;69840;53.040;8.600;2023-07-08T14:12:59;101858.44;;;39.80;16.64
80511;BME280;69840;53.040;8.600;2023-07-08T14:17:14;101858.78;;;40.20;17.12
80511;BME280;69840;53.040;8.600;2023-07-08T14:21:32;101849.09;;;40.67;13.16
80511;BME280;69840;53.040;8.600;2023-07-08T14:25:44;101855.56;;;40.39;15.20
80511;BME280;69840;53.040;8.600;2023-07-08T14:29:57;101847.47;;;40.34;16.44
80511;BME280;69840;53.040;8.600;2023-07-08T14:34:17;101849.41;;;39.91;17.56
80511;BME280;69840;53.040;8.600;2023-07-08T14:38:33;101850.22;;;40.13;17.64
80511;BME280;69840;53.040;8.600;2023-07-08T14:42:45;101850.56;;;40.11;16.89
80511;BME280;69840;53.040;8.600;2023-07-08T14:46:58;101849.19;;;40.59;15.40
80511;BME280;69840;53.040;8.600;2023-07-08T14:51:10;101847.56;;;40.58;19.51
80511;BME280;69840;53.040;8.600;2023-07-08T14:55:23;101848.94;;;40.31;16.65
80511;BME280;69840;53.040;8.600;2023-07-08T14:59:36;101854.69;;;40.05;17.93
80511;BME280;69840;53.040;8.600;2023-07-08T15:03:49;101854.97;;;40.33;17.64
80511;BME280;69840;53.040;8.600;2023-07-08T15:08:01;101851.84;;;39.84;18.54
80511;BME280;69840;53.040;8.600;2023-07-08T15:12:14;101851.13;;;39.75;18.02
80511;BME280;69840;53.040;8.600;2023-07-08T15:16:26;101853.47;;;39.94;20.22
80511;BME280;69840;53.040;8.600;2023-07-08T15:20:39;101849.13;;;40.05;14.70
80511;BME280;69840;53.040;8.600;2023-07-08T15:24:52;101857.63;;;39.79;18.73
80511;BME280;69840;53.040;8.600;2023-07-08T15:29:06;101848.28;;;40.13;16.95
80511;BME280;69840;53.040;8.600;2023-07-08T15:33:24;101847.19;;;40.06;18.17
80511;BME280;69840;53.040;8.600;2023-07-08T15:37:36;101842.06;;;39.66;17.67
80511;BME280;69840;53.040;8.600;2023-07-08T15:41:49;101846.38;;;40.05;17.93
80511;BME280;69840;53.040;8.600;2023-07-08T15:46:02;101835.03;;;39.69;17.64
80511;BME280;69840;53.040;8.600;2023-07-08T15:50:19;101836.41;;;39.54;18.87
80511;BME280;69840;53.040;8.600;2023-07-08T15:54:32;101842.47;;;39.77;19.50
80511;BME280;69840;53.040;8.600;2023-07-08T15:58:45;101844.06;;;39.86;18.03
80511;BME280;69840;53.040;8.600;2023-07-08T16:03:00;101838.41;;;39.74;16.00
80511;BME280;69840;53.040;8.600;2023-07-08T16:07:14;101838.00;;;39.84;15.91
80511;BME280;69840;53.040;8.600;2023-07-08T16:11:30;101834.84;;;39.44;18.82
80511;BME280;69840;53.040;8.600;2023-07-08T16:15:43;101833.38;;;39.47;16.24
80511;BME280;69840;53.040;8.600;2023-07-08T16:19:56;101839.84;;;39.13;17.83
80511;BME280;69840;53.040;8.600;2023-07-08T16:24:09;101835.94;;;39.14;16.82
80511;BME280;69840;53.040;8.600;2023-07-08T16:28:37;101831.66;;;38.44;18.06
80511;BME280;69840;53.040;8.600;2023-07-08T16:32:51;101827.63;;;38.15;20.29
80511;BME280;69840;53.040;8.600;2023-07-08T16:37:03;101823.84;;;37.85;20.49
80511;BME280;69840;53.040;8.600;2023-07-08T16:41:18;101826.91;;;36.96;20.23
80511;BME280;69840;53.040;8.600;2023-07-08T16:45:31;101830.63;;;37.00;19.47
80511;BME280;69840;53.040;8.600;2023-07-08T16:49:44;101830.31;;;37.02;21.39
80511;BME280;69840;53.040;8.600;2023-07-08T16:54:00;101818.84;;;36.33;22.05
80511;BME280;69840;53.040;8.600;2023-07-08T16:58:13;101822.16;;;36.07;20.94
80511;BME280;69840;53.040;8.600;2023-07-08T17:02:26;101821.03;;;36.08;22.26
80511;BME280;69840;53.040;8.600;2023-07-08T17:06:38;101825.34;;;35.73;21.19
80511;BME280;69840;53.040;8.600;2023-07-08T17:10:51;101824.19;;;35.38;21.60
80511;BME280;69840;53.040;8.600;2023-07-08T17:15:04;101828.97;;;34.87;23.22
80511;BME280;69840;53.040;8.600;2023-07-08T17:19:17;101815.53;;;34.66;24.12
80511;BME280;69840;53.040;8.600;2023-07-08T17:23:29;101813.53;;;34.39;24.49
80511;BME280;69840;53.040;8.600;2023-07-08T17:27:42;101821.84;;;34.16;26.70
80511;BME280;69840;53.040;8.600;2023-07-08T17:31:54;101821.94;;;33.87;27.61
80511;BME280;69840;53.040;8.600;2023-07-08T17:36:10;101824.66;;;33.44;26.53
80511;BME280;69840;53.040;8.600;2023-07-08T17:40:26;101817.81;;;33.18;28.45
80511;BME280;69840;53.040;8.600;2023-07-08T17:44:39;101813.16;;;32.89;29.76
80511;BME280;69840;53.040;8.600;2023-07-08T17:48:51;101810.13;;;32.57;33.31
80511;BME280;69840;53.040;8.600;2023-07-08T17:53:09;101801.16;;;32.07;31.94
80511;BME280;69840;53.040;8.600;2023-07-08T17:57:22;101798.78;;;31.85;30.73
80511;BME280;69840;53.040;8.600;2023-07-08T18:01:35;101802.69;;;31.69;32.13
80511;BME280;69840;53.040;8.600;2023-07-08T18:05:47;101807.16;;;31.39;36.35
80511;BME280;69840;53.040;8.600;2023-07-08T18:10:00;101807.22;;;30.89;34.71
80511;BME280;69840;53.040;8.600;2023-07-08T18:14:12;101806.69;;;30.56;36.63
80511;BME280;69840;53.040;8.600;2023-07-08T18:18:25;101805.53;;;30.17;36.79
80511;BME280;69840;53.040;8.600;2023-07-08T18:22:40;101804.84;;;29.74;36.79
80511;BME280;69840;53.040;8.600;2023-07-08T18:26:53;101804.34;;;29.35;42.29
80511;BME280;69840;53.040;8.600;2023-07-08T18:31:10;101809.81;;;28.93;42.10
80511;BME280;69840;53.040;8.600;2023-07-08T18:35:25;101811.56;;;28.50;44.14
80511;BME280;69840;53.040;8.600;2023-07-08T18:39:38;101812.59;;;28.17;44.24
80511;BME280;69840;53.040;8.600;2023-07-08T18:43:51;101811.41;;;27.86;45.34
80511;BME280;69840;53.040;8.600;2023-07-08T18:48:04;101811.69;;;27.63;49.53
80511;BME280;69840;53.040;8.600;2023-07-08T18:52:16;101808.63;;;27.38;50.30
80511;BME280;69840;53.040;8.600;2023-07-08T18:56:29;101813.19;;;26.99;49.90
80511;BME280;69840;53.040;8.600;2023-07-08T19:00:42;101817.34;;;26.73;51.01
80511;BME280;69840;53.040;8.600;2023-07-08T19:04:55;101822.84;;;26.44;49.71
80511;BME280;69840;53.040;8.600;2023-07-08T19:09:08;101821.66;;;26.12;51.73
80511;BME280;69840;53.040;8.600;2023-07-08T19:13:24;101822.56;;;25.77;52.43
80511;BME280;69840;53.040;8.600;2023-07-08T19:17:36;101824.22;;;25.55;53.14
80511;BME280;69840;53.040;8.600;2023-07-08T19:21:51;101835.91;;;25.32;56.76
80511;BME280;69840;53.040;8.600;2023-07-08T19:26:04;101837.31;;;25.11;56.47
80511;BME280;69840;53.040;8.600;2023-07-08T19:30:18;101847.81;;;24.90;58.60
80511;BME280;69840;53.040;8.600;2023-07-08T19:34:31;101852.09;;;24.26;56.45
80511;BME280;69840;53.040;8.600;2023-07-08T19:38:43;101852.41;;;23.81;61.94
80511;BME280;69840;53.040;8.600;2023-07-08T19:42:56;101857.03;;;23.31;65.01
80511;BME280;69840;53.040;8.600;2023-07-08T19:47:10;101865.81;;;22.77;67.88
80511;BME280;69840;53.040;8.600;2023-07-08T19:51:23;101864.56;;;22.34;70.45
80511;BME280;69840;53.040;8.600;2023-07-08T19:55:37;101867.81;;;21.92;78.60
80511;BME280;69840;53.040;8.600;2023-07-08T19:59:50;101875.13;;;21.58;79.02
80511;BME280;69840;53.040;8.600;2023-07-08T20:04:03;101875.16;;;21.32;76.36
80511;BME280;69840;53.040;8.600;2023-07-08T20:08:22;101887.19;;;21.23;75.65
80511;BME280;69840;53.040;8.600;2023-07-08T20:12:34;101897.53;;;21.19;75.08
80511;BME280;69840;53.040;8.600;2023-07-08T20:16:47;101898.97;;;21.22;74.80
80511;BME280;69840;53.040;8.600;2023-07-08T20:21:00;101901.03;;;21.40;72.71
80511;BME280;69840;53.040;8.600;2023-07-08T20:25:14;101914.06;;;21.56;72.19
80511;BME280;69840;53.040;8.600;2023-07-08T20:29:27;101905.75;;;21.64;69.56
80511;BME280;69840;53.040;8.600;2023-07-08T20:33:40;101914.44;;;21.73;70.70
80511;BME280;69840;53.040;8.600;2023-07-08T20:37:52;101915.69;;;21.77;70.50
80511;BME280;69840;53.040;8.600;2023-07-08T20:42:10;101923.13;;;21.81;70.75
80511;BME280;69840;53.040;8.600;2023-07-08T20:46:25;101921.03;;;21.90;68.67
80511;BME280;69840;53.040;8.600;2023-07-08T20:50:37;101928.31;;;22.02;65.00
80511;BME280;69840;53.040;8.600;2023-07-08T20:54:50;101933.66;;;22.09;64.54
80511;BME280;69840;53.040;8.600;2023-07-08T20:59:03;101936.53;;;22.14;64.70
80511;BME280;69840;53.040;8.600;2023-07-08T21:03:18;101943.75;;;22.27;63.02
80511;BME280;69840;53.040;8.600;2023-07-08T21:07:31;101944.78;;;22.32;59.80
80511;BME280;69840;53.040;8.600;2023-07-08T21:11:43;101944.53;;;22.40;60.54
80511;BME280;69840;53.040;8.600;2023-07-08T21:15:56;101945.97;;;22.43;56.54
80511;BME280;69840;53.040;8.600;2023-07-08T21:20:21;101948.03;;;22.41;57.71
80511;BME280;69840;53.040;8.600;2023-07-08T21:24:34;101958.47;;;22.31;58.86
80511;BME280;69840;53.040;8.600;2023-07-08T21:28:48;101957.22;;;22.20;60.69
80511;BME280;69840;53.040;8.600;2023-07-08T21:33:01;101963.47;;;22.08;61.40
80511;BME280;69840;53.040;8.600;2023-07-08T21:37:13;101968.88;;;21.94;62.25
80511;BME280;69840;53.040;8.600;2023-07-08T21:41:27;101976.56;;;21.84;62.26
80511;BME280;69840;53.040;8.600;2023-07-08T21:45:40;101966.81;;;21.77;61.20
80511;BME280;69840;53.040;8.600;2023-07-08T21:49:52;101969.53;;;21.70;62.37
80511;BME280;69840;53.040;8.600;2023-07-08T21:54:05;101973.66;;;21.59;62.56
80511;BME280;69840;53.040;8.600;2023-07-08T21:58:18;101976.56;;;21.51;62.68
80511;BME280;69840;53.040;8.600;2023-07-08T22:02:31;101975.94;;;21.43;63.77
80511;BME280;69840;53.040;8.600;2023-07-08T22:06:43;101971.16;;;21.31;63.98
80511;BME280;69840;53.040;8.600;2023-07-08T22:10:58;101968.06;;;21.21;68.59
80511;BME280;69840;53.040;8.600;2023-07-08T22:15:20;101974.00;;;21.10;65.32
80511;BME280;69840;53.040;8.600;2023-07-08T22:19:33;101977.50;;;21.11;62.58
80511;BME280;69840;53.040;8.600;2023-07-08T22:23:46;101984.97;;;21.09;63.31
80511;BME280;69840;53.040;8.600;2023-07-08T22:27:59;101978.53;;;21.03;62.41
80511;BME280;69840;53.040;8.600;2023-07-08T22:32:11;101981.63;;;21.00;67.70
80511;BME280;69840;53.040;8.600;2023-07-08T22:36:24;101989.66;;;20.87;66.42
80511;BME280;69840;53.040;8.600;2023-07-08T22:40:43;101984.69;;;20.77;66.47
80511;BME280;69840;53.040;8.600;2023-07-08T22:44:56;101982.94;;;20.63;66.56
80511;BME280;69840;53.040;8.600;2023-07-08T22:49:08;101976.13;;;20.60;65.64